South Colby, WA (98384)

7:36 PM PDT on August 30, 2015 (GMT -0700)
Yukon Harbor | | Change Station
CLOSE
Current Station
Personal Weather Station
Location: Port Orchard, WA
Elevation: 92 ft
Nearby Weather Stations

Elev 92 ft 47.52 °N, 122.55 °W | Updated 31 seconds ago

Overcast
Overcast
62.8 °F
Feels Like 62.8 °F
N
1.1
Wind Variable Wind from SSE
Gusts 4.0 mph

Today
High -- | Low -- °F
--% Chance of Precip.
Yesterday
High -- | Low -- °F
Precip. -- in
6:25 AM 7:54 PM
Full, 97% visible
Pressure 29.99 in
Visibility 10.0 miles
Clouds Few 2500 ft
Scattered Clouds 7000 ft
Mostly Cloudy 8000 ft
Dew Point 55 °F
Humidity 76%
Rainfall 0.49 in
Snow Depth Not available.
UV 0 out of 12
Pollen .50 out of 12
Air Quality Not available.
Flu Activity Not available.
METAR KPWT 310235Z AUTO 21013G19KT 10SM FEW025 SCT070 BKN080 16/13 A2999 RMK AO1
Pressure 29.99 in
Visibility 10.0 miles
Clouds Few 2500 ft
Scattered Clouds 7000 ft
Mostly Cloudy 8000 ft
Dew Point 55 °F
Humidity 76%
Rainfall 0.49 in
Snow Depth Not available.
UV 0 out of 12
Pollen .50 out of 12
Air Quality Not available.
Flu Activity Not available.
METAR KPWT 310235Z AUTO 21013G19KT 10SM FEW025 SCT070 BKN080 16/13 A2999 RMK AO1

10-Day Weather Forecast

×

Almanac

Astronomy

Aug. 30, 2015 Rise Set
Actual Time
Civil Twilight
Nautical Twilight
Astronomical Twilight
Moon
Length of Visible Light
Length of Day
Tomorrow will be .
, % of the Moon is Illuminated

Today's Extremes

State Highs State Lows

Community

WunderPhotos

Upload Photos

1,851,164 photos uploaded!

WunderBlogs® & News

Nearby

Air Quality

  Air Quality AQ Index Pollutant
Not available.

Snow Depth

Station Depth Elevation

Earthquake Activity

City Distance Mag. Time & Date
Minimum magnitude displayed is 2.5.

Coastal Water Temperatures

Place Temperature

Stations

Nearby Weather Stations

Station Location Temp. Windchill Dew Point Humidity Wind Precip. Elev Updated Type